MSC Susanna — 3ECU4 — position and weather

sailwx.info

Track history (hours):
 
Tides and Currents Weather Stations Pressure Air Temp Water Temp Dewpoint Dewpoint Depression Visibility Wind Speed Wind Dir Waves Ship Positions

MSC Susanna

Last reported at 2016-Jun-08 18:21 UTC. Time now 2016-Jun-30 17:52 UTC.
Position N 31°44' E 031°59'.
Warning: this ship's position is 21 days out of date.

Length 337 m; draft 15.7 m.

Type: Ship (hazmat cat A). MMSI: 371466000.

Date/timePositionNaut miles runAvg speedWind from/ knotsBaromVisibWave heightAir tempDewpointWater temp
2016-Jun-08 18:21N 31°44' E 031°59'2714.5
2016-Jun-08 16:29N 31°57' E 031°31'1515.0
2016-Jun-08 15:30N 32°02' E 031°15'1414.9
2016-Jun-08 14:34N 32°08' E 030°60'8215.4
2016-Jun-08 09:13N 32°39' E 029°30'1115.8
2016-Jun-08 08:31N 32°43' E 029°17'2017.7
2016-Jun-08 07:23N 32°51' E 028°56'68120.1
2016-Jun-06 21:33N 37°33' E 016°16'2020.1
2016-Jun-06 20:33N 37°40' E 015°53'1919.5
2016-Jun-06 19:33N 37°55' E 015°36'1919.2
2016-Jun-06 18:33N 38°14' E 015°36'1716.9
2016-Jun-06 17:33N 38°26' E 015°50'3 3.0
2016-Jun-06 16:32N 38°27' E 015°54'0 0.0
2016-Jun-06 15:32N 38°27' E 015°54'0 0.0
2016-Jun-06 14:32N 38°27' E 015°54'0 0.0
2016-Jun-06 13:29N 38°27' E 015°54'0 0.0
2016-Jun-06 12:32N 38°27' E 015°54'0 0.0
2016-Jun-06 11:29N 38°27' E 015°54'0 0.0
2016-Jun-06 10:29N 38°27' E 015°54'0 0.0
2016-Jun-06 09:29N 38°27' E 015°54'0 0.0
2016-Jun-06 08:32N 38°27' E 015°54'0 0.0
2016-Jun-06 07:26N 38°27' E 015°54'0 0.0
2016-Jun-06 06:32N 38°27' E 015°54'0 0.0
2016-Jun-06 05:32N 38°27' E 015°54'0 0.0
2016-Jun-06 04:32N 38°27' E 015°54'0 0.0
2016-Jun-06 03:29N 38°27' E 015°54'0 0.0
2016-Jun-06 02:32N 38°27' E 015°54'0 0.0
2016-Jun-06 01:32N 38°27' E 015°54'0 0.0
2016-Jun-06 00:32N 38°27' E 015°54'1 0.6
2016-Jun-05 23:34N 38°27' E 015°54'4 3.6
2016-Jun-05 22:34N 38°27' E 015°49'1 1.2
2016-Jun-05 21:33N 38°27' E 015°48'9 8.9
2016-Jun-05 20:34N 38°24' E 015°37'1313.2
2016-Jun-05 19:34N 38°22' E 015°20'1313.1
2016-Jun-05 18:33N 38°19' E 015°04'1312.9
2016-Jun-05 17:33N 38°18' E 014°47'3912.9
2016-Jun-05 14:32N 38°19' E 013°58'1312.8
2016-Jun-05 13:33N 38°19' E 013°42'1313.0
2016-Jun-05 12:34N 38°19' E 013°25'1313.2
2016-Jun-05 11:34N 38°18' E 013°08'1413.4
2016-Jun-05 10:30N 38°17' E 012°50'1313.1
2016-Jun-05 09:30N 38°16' E 012°34'1212.6
2016-Jun-05 08:33N 38°15' E 012°18'39015.5
2016-Jun-04 07:24N 37°13' E 004°12'1619.1
2016-Jun-04 06:33N 37°10' E 003°52'4219.2
2016-Jun-04 04:23N 37°04' E 003°01'3619.3
2016-Jun-04 02:32N 36°58' E 002°16'1919.3
2016-Jun-04 01:33N 36°55' E 001°53'2419.2
2016-Jun-04 00:18N 36°51' E 001°23'3619.0
2016-Jun-03 22:24N 36°45' E 000°39'1618.5
2016-Jun-03 21:31N 36°42' E 000°19'1718.1
2016-Jun-03 20:33N 36°39' W 000°02'1918.6
2016-Jun-03 19:33N 36°36' W 000°25'1918.7
2016-Jun-03 18:33N 36°33' W 000°48'21619.2
2016-Jun-03 07:18N 36°01' W 005°13'7719.2
2016-Jun-03 03:18N 36°01' W 006°48'2118.5
2016-Jun-03 02:10N 36°06' W 007°13'1218.6
2016-Jun-03 01:30N 36°09' W 007°28'2418.6
2016-Jun-03 00:14N 36°16' W 007°56'2018.4
2016-Jun-02 23:08N 36°22' W 008°20'1118.4
2016-Jun-02 22:33N 36°25' W 008°33'1818.2
2016-Jun-02 21:33N 36°30' W 008°55'3517.3
2016-Jun-02 19:31N 36°48' W 009°32'1818.2
2016-Jun-02 18:33N 37°06' W 009°31'1818.4
2016-Jun-02 17:33N 37°21' W 009°18'1919.1
2016-Jun-02 16:33N 37°37' W 009°04'1919.0
2016-Jun-02 15:33N 37°53' W 008°51'3 2.9
2016-Jun-02 14:32N 37°56' W 008°51'0 0.0
2016-Jun-02 13:29N 37°56' W 008°51'0 0.0
2016-Jun-02 12:32N 37°56' W 008°51'0 0.0
2016-Jun-02 11:32N 37°56' W 008°51'0 0.0
2016-Jun-02 10:32N 37°56' W 008°51'0 0.0
2016-Jun-02 09:32N 37°56' W 008°51'0 0.0
2016-Jun-02 08:31N 37°56' W 008°51'0 0.0
2016-Jun-02 07:31N 37°56' W 008°51'0 0.0
2016-Jun-02 06:31N 37°56' W 008°51'0 0.0
2016-Jun-02 05:31N 37°56' W 008°51'0 0.0
2016-Jun-02 04:31N 37°56' W 008°51'0 0.0
2016-Jun-02 03:31N 37°56' W 008°51'0 0.0
2016-Jun-02 02:31N 37°56' W 008°51'0 0.0
2016-Jun-02 01:31N 37°56' W 008°51'0 0.0
2016-Jun-02 00:31N 37°56' W 008°51'0 0.0
2016-Jun-01 23:31N 37°56' W 008°51'3 3.5
2016-Jun-01 22:33N 37°53' W 008°50'3 3.0
2016-Jun-01 21:33N 37°50' W 008°53'8 8.4
2016-Jun-01 20:33N 37°49' W 009°03'2 1.9
2016-Jun-01 19:33N 37°50' W 009°05'1 1.5
2016-Jun-01 18:33N 37°51' W 009°05'1 1.4
2016-Jun-01 17:33N 37°53' W 009°05'1 0.9
2016-Jun-01 16:33N 37°53' W 009°06'1010.1
2016-Jun-01 15:33N 37°57' W 009°18'7 7.3
2016-Jun-01 14:33N 38°01' W 009°26'2 1.7
2016-Jun-01 13:33N 38°03' W 009°26'2 1.6
2016-Jun-01 12:33N 38°04' W 009°27'2 1.6
2016-Jun-01 11:33N 38°06' W 009°28'1 1.5
2016-Jun-01 10:33N 38°07' W 009°29'1 1.2
2016-Jun-01 09:33N 38°08' W 009°29'1 1.0
2016-Jun-01 08:33N 38°09' W 009°30'1 0.8
2016-Jun-01 07:33N 38°10' W 009°30'2 2.1
2016-Jun-01 06:33N 38°12' W 009°30'1313.2
2016-Jun-01 05:33N 38°20' W 009°43'1413.5
2016-Jun-01 04:33N 38°29' W 009°56'1312.9
2016-Jun-01 03:34N 38°39' W 010°06'1413.7
2016-Jun-01 02:31N 38°54' W 010°06'1314.0
2016-Jun-01 01:33N 39°07' W 010°06'1414.0
2016-Jun-01 00:32N 39°21' W 010°07'  
Track history (hours):
 
Tides and Currents Weather Stations Pressure Air Temp Water Temp Dewpoint Dewpoint Depression Visibility Wind Speed Wind Dir Waves Ship Positions

MSC Susanna

Last reported at 2016-Jun-08 18:21 UTC. Time now 2016-Jun-30 17:52 UTC.
Position N 31°44' E 031°59'.
Warning: this ship's position is 21 days out of date.

Length 337 m; draft 15.7 m.

Type: Ship (hazmat cat A). MMSI: 371466000.

Date/timePositionNaut miles runAvg speedWind from/ knotsBaromVisibWave heightAir tempDewpointWater temp
2016-Jun-08 18:21N 31°44' E 031°59'2714.5
2016-Jun-08 16:29N 31°57' E 031°31'1515.0
2016-Jun-08 15:30N 32°02' E 031°15'1414.9
2016-Jun-08 14:34N 32°08' E 030°60'8215.4
2016-Jun-08 09:13N 32°39' E 029°30'1115.8
2016-Jun-08 08:31N 32°43' E 029°17'2017.7
2016-Jun-08 07:23N 32°51' E 028°56'68120.1
2016-Jun-06 21:33N 37°33' E 016°16'2020.1
2016-Jun-06 20:33N 37°40' E 015°53'1919.5
2016-Jun-06 19:33N 37°55' E 015°36'1919.2
2016-Jun-06 18:33N 38°14' E 015°36'1716.9
2016-Jun-06 17:33N 38°26' E 015°50'3 3.0
2016-Jun-06 16:32N 38°27' E 015°54'0 0.0
2016-Jun-06 15:32N 38°27' E 015°54'0 0.0
2016-Jun-06 14:32N 38°27' E 015°54'0 0.0
2016-Jun-06 13:29N 38°27' E 015°54'0 0.0
2016-Jun-06 12:32N 38°27' E 015°54'0 0.0
2016-Jun-06 11:29N 38°27' E 015°54'0 0.0
2016-Jun-06 10:29N 38°27' E 015°54'0 0.0
2016-Jun-06 09:29N 38°27' E 015°54'0 0.0
2016-Jun-06 08:32N 38°27' E 015°54'0 0.0
2016-Jun-06 07:26N 38°27' E 015°54'0 0.0
2016-Jun-06 06:32N 38°27' E 015°54'0 0.0
2016-Jun-06 05:32N 38°27' E 015°54'0 0.0
2016-Jun-06 04:32N 38°27' E 015°54'0 0.0
2016-Jun-06 03:29N 38°27' E 015°54'0 0.0
2016-Jun-06 02:32N 38°27' E 015°54'0 0.0
2016-Jun-06 01:32N 38°27' E 015°54'0 0.0
2016-Jun-06 00:32N 38°27' E 015°54'1 0.6
2016-Jun-05 23:34N 38°27' E 015°54'4 3.6
2016-Jun-05 22:34N 38°27' E 015°49'1 1.2
2016-Jun-05 21:33N 38°27' E 015°48'9 8.9
2016-Jun-05 20:34N 38°24' E 015°37'1313.2
2016-Jun-05 19:34N 38°22' E 015°20'1313.1
2016-Jun-05 18:33N 38°19' E 015°04'1312.9
2016-Jun-05 17:33N 38°18' E 014°47'3912.9
2016-Jun-05 14:32N 38°19' E 013°58'1312.8
2016-Jun-05 13:33N 38°19' E 013°42'1313.0
2016-Jun-05 12:34N 38°19' E 013°25'1313.2
2016-Jun-05 11:34N 38°18' E 013°08'1413.4
2016-Jun-05 10:30N 38°17' E 012°50'1313.1
2016-Jun-05 09:30N 38°16' E 012°34'1212.6
2016-Jun-05 08:33N 38°15' E 012°18'39015.5
2016-Jun-04 07:24N 37°13' E 004°12'1619.1
2016-Jun-04 06:33N 37°10' E 003°52'4219.2
2016-Jun-04 04:23N 37°04' E 003°01'3619.3
2016-Jun-04 02:32N 36°58' E 002°16'1919.3
2016-Jun-04 01:33N 36°55' E 001°53'2419.2
2016-Jun-04 00:18N 36°51' E 001°23'3619.0
2016-Jun-03 22:24N 36°45' E 000°39'1618.5
2016-Jun-03 21:31N 36°42' E 000°19'1718.1
2016-Jun-03 20:33N 36°39' W 000°02'1918.6
2016-Jun-03 19:33N 36°36' W 000°25'1918.7
2016-Jun-03 18:33N 36°33' W 000°48'21619.2
2016-Jun-03 07:18N 36°01' W 005°13'7719.2
2016-Jun-03 03:18N 36°01' W 006°48'2118.5
2016-Jun-03 02:10N 36°06' W 007°13'1218.6
2016-Jun-03 01:30N 36°09' W 007°28'2418.6
2016-Jun-03 00:14N 36°16' W 007°56'2018.4
2016-Jun-02 23:08N 36°22' W 008°20'1118.4
2016-Jun-02 22:33N 36°25' W 008°33'1818.2
2016-Jun-02 21:33N 36°30' W 008°55'3517.3
2016-Jun-02 19:31N 36°48' W 009°32'1818.2
2016-Jun-02 18:33N 37°06' W 009°31'1818.4
2016-Jun-02 17:33N 37°21' W 009°18'1919.1
2016-Jun-02 16:33N 37°37' W 009°04'1919.0
2016-Jun-02 15:33N 37°53' W 008°51'3 2.9
2016-Jun-02 14:32N 37°56' W 008°51'0 0.0
2016-Jun-02 13:29N 37°56' W 008°51'0 0.0
2016-Jun-02 12:32N 37°56' W 008°51'0 0.0
2016-Jun-02 11:32N 37°56' W 008°51'0 0.0
2016-Jun-02 10:32N 37°56' W 008°51'0 0.0
2016-Jun-02 09:32N 37°56' W 008°51'0 0.0
2016-Jun-02 08:31N 37°56' W 008°51'0 0.0
2016-Jun-02 07:31N 37°56' W 008°51'0 0.0
2016-Jun-02 06:31N 37°56' W 008°51'0 0.0
2016-Jun-02 05:31N 37°56' W 008°51'0 0.0
2016-Jun-02 04:31N 37°56' W 008°51'0 0.0
2016-Jun-02 03:31N 37°56' W 008°51'0 0.0
2016-Jun-02 02:31N 37°56' W 008°51'0 0.0
2016-Jun-02 01:31N 37°56' W 008°51'0 0.0
2016-Jun-02 00:31N 37°56' W 008°51'0 0.0
2016-Jun-01 23:31N 37°56' W 008°51'3 3.5
2016-Jun-01 22:33N 37°53' W 008°50'3 3.0
2016-Jun-01 21:33N 37°50' W 008°53'8 8.4
2016-Jun-01 20:33N 37°49' W 009°03'2 1.9
2016-Jun-01 19:33N 37°50' W 009°05'1 1.5
2016-Jun-01 18:33N 37°51' W 009°05'1 1.4
2016-Jun-01 17:33N 37°53' W 009°05'1 0.9
2016-Jun-01 16:33N 37°53' W 009°06'1010.1
2016-Jun-01 15:33N 37°57' W 009°18'7 7.3
2016-Jun-01 14:33N 38°01' W 009°26'2 1.7
2016-Jun-01 13:33N 38°03' W 009°26'2 1.6
2016-Jun-01 12:33N 38°04' W 009°27'2 1.6
2016-Jun-01 11:33N 38°06' W 009°28'1 1.5
2016-Jun-01 10:33N 38°07' W 009°29'1 1.2
2016-Jun-01 09:33N 38°08' W 009°29'1 1.0
2016-Jun-01 08:33N 38°09' W 009°30'1 0.8
2016-Jun-01 07:33N 38°10' W 009°30'2 2.1
2016-Jun-01 06:33N 38°12' W 009°30'1313.2
2016-Jun-01 05:33N 38°20' W 009°43'1413.5
2016-Jun-01 04:33N 38°29' W 009°56'1312.9
2016-Jun-01 03:34N 38°39' W 010°06'1413.7
2016-Jun-01 02:31N 38°54' W 010°06'1314.0
2016-Jun-01 01:33N 39°07' W 010°06'1414.0
2016-Jun-01 00:32N 39°21' W 010°07'  

Dump ship's entire track history